Time;durP1;ratioP1;P1;durP2;ratioP2;P2;SDS_P1;SDS_P2;PMS_P1;PMS_P2;Temp;Humidity;BMP_temperature;BMP_pressure;BME280_temperature;BME280_humidity;BME280_pressure;Samples;Min_cycle;Max_cycle;Signal;HPM_P1;HPM_P2
2021/03/18 00:01:13;;;;;;;1.70;1.38;;;;;;;23.52;35.32;94184.03;4998358;28;20041;-80
2021/03/18 00:03:40;;;;;;;1.88;1.30;;;;;;;23.52;35.27;94184.03;5015321;28;20056;-81
2021/03/18 00:06:06;;;;;;;2.00;1.25;;;;;;;23.51;35.50;94188.00;4997964;28;20112;-81
2021/03/18 00:08:31;;;;;;;1.65;1.13;;;;;;;23.17;35.26;94140.25;5014791;28;20033;-81
2021/03/18 00:10:57;;;;;;;1.55;1.15;;;;;;;23.44;35.71;94175.06;5015363;28;20061;-82
2021/03/18 00:13:23;;;;;;;1.67;1.27;;;;;;;23.48;35.28;94194.53;5014930;28;20037;-81
2021/03/18 00:15:49;;;;;;;1.73;1.00;;;;;;;23.48;35.39;94189.06;5014177;28;20055;-82
2021/03/18 00:18:18;;;;;;;1.58;1.20;;;;;;;23.45;35.47;94187.41;5014657;28;20097;-81
2021/03/18 00:20:44;;;;;;;2.10;1.20;;;;;;;23.45;35.58;94190.13;4997674;28;20518;-81
2021/03/18 00:23:10;;;;;;;2.20;1.23;;;;;;;23.41;35.71;94189.75;5014966;28;20030;-81
2021/03/18 00:25:35;;;;;;;1.92;1.20;;;;;;;23.37;35.37;94183.88;5014711;28;20022;-81
2021/03/18 00:28:01;;;;;;;1.70;1.23;;;;;;;23.35;35.61;94175.50;5014176;28;20422;-82
2021/03/18 00:30:26;;;;;;;1.83;1.20;;;;;;;23.38;35.89;94186.06;5014985;28;20026;-82
2021/03/18 00:32:52;;;;;;;1.80;1.30;;;;;;;23.39;35.52;94192.25;4996426;28;20545;-82
2021/03/18 00:35:18;;;;;;;1.67;1.20;;;;;;;23.37;35.90;94178.44;5013864;28;20037;-81
2021/03/18 00:37:44;;;;;;;1.52;1.10;;;;;;;22.99;35.62;94132.97;5014352;28;20120;-82
2021/03/18 00:40:17;;;;;;;1.63;1.02;;;;;;;22.98;35.99;94132.22;4997288;28;20038;-81
2021/03/18 00:43:05;;;;;;;1.63;1.20;;;;;;;23.35;35.94;94180.22;5014453;28;20029;-82
2021/03/18 00:45:31;;;;;;;1.60;1.17;;;;;;;23.34;36.08;94182.22;5012365;28;20030;-82
2021/03/18 00:47:59;;;;;;;1.65;1.17;;;;;;;23.32;35.67;94176.56;4996512;28;20061;-81
2021/03/18 00:50:32;;;;;;;2.13;1.10;;;;;;;23.30;35.83;94184.53;5014529;28;20022;-82
2021/03/18 00:52:58;;;;;;;1.98;1.30;;;;;;;23.30;36.04;94195.41;5013497;28;20038;-81
2021/03/18 00:55:23;;;;;;;1.58;1.10;;;;;;;23.28;35.62;94176.16;4996704;28;20088;-81
2021/03/18 00:57:49;;;;;;;1.70;1.10;;;;;;;23.26;36.03;94178.69;5014836;28;20026;-80
2021/03/18 01:00:18;;;;;;;1.52;1.20;;;;;;;23.22;35.93;94178.25;5000712;28;20557;-79
2021/03/18 01:02:43;;;;;;;1.90;1.40;;;;;;;23.28;35.67;94176.16;5018916;28;20054;-79
2021/03/18 01:05:11;;;;;;;1.63;1.30;;;;;;;23.24;35.78;94175.72;5017860;28;20096;-80
2021/03/18 01:07:37;;;;;;;1.70;1.15;;;;;;;23.23;35.53;94173.53;5017703;28;20484;-79
2021/03/18 01:10:06;;;;;;;1.55;1.25;;;;;;;23.22;35.61;94178.25;5000392;28;20105;-82
2021/03/18 01:12:31;;;;;;;1.67;1.20;;;;;;;23.25;36.15;94182.66;5012808;28;20064;-81
2021/03/18 01:14:57;;;;;;;1.65;1.13;;;;;;;22.83;35.89;94125.13;5012301;28;20025;-81
2021/03/18 01:17:22;;;;;;;1.65;1.25;;;;;;;23.18;35.76;94172.41;5012611;28;20029;-81
2021/03/18 01:19:48;;;;;;;1.45;1.00;;;;;;;23.21;35.70;94187.69;5014159;28;20462;-81
2021/03/18 01:22:13;;;;;;;1.45;1.20;;;;;;;22.81;35.64;94124.91;5013846;28;20036;-80
2021/03/18 01:24:39;;;;;;;1.75;1.25;;;;;;;23.17;36.11;94181.84;5012371;28;20205;-81
2021/03/18 01:27:04;;;;;;;1.48;1.25;;;;;;;23.19;35.96;94187.50;5013319;28;20026;-81
2021/03/18 01:29:30;;;;;;;2.20;1.30;;;;;;;23.13;36.11;94175.97;5013613;28;20028;-81
2021/03/18 01:31:55;;;;;;;1.42;1.10;;;;;;;23.19;36.07;94184.75;5011494;28;20040;-81
2021/03/18 01:34:21;;;;;;;2.13;1.35;;;;;;;23.16;35.98;94180.38;4994604;28;20038;-81
2021/03/18 01:36:46;;;;;;;1.70;1.20;;;;;;;23.05;35.97;94175.16;4994259;28;20491;-81
2021/03/18 01:39:12;;;;;;;1.95;1.30;;;;;;;23.17;35.60;94187.28;5000845;28;20034;-81
2021/03/18 01:41:37;;;;;;;1.60;1.30;;;;;;;23.07;35.90;94178.09;4983142;28;20038;-81
2021/03/18 01:44:03;;;;;;;1.73;1.25;;;;;;;23.14;36.18;94182.19;4995088;28;20061;-81
2021/03/18 01:46:29;;;;;;;1.80;1.50;;;;;;;23.07;36.09;94175.38;5011281;28;20049;-81
2021/03/18 01:48:54;;;;;;;1.50;1.20;;;;;;;23.12;36.01;94190.88;5012194;28;20022;-81
2021/03/18 01:51:20;;;;;;;1.83;1.30;;;;;;;23.13;35.84;94191.59;5006625;28;20088;-81
2021/03/18 01:53:47;;;;;;;1.45;1.20;;;;;;;23.13;35.72;94192.31;5008448;28;20061;-82
2021/03/18 01:56:12;;;;;;;1.90;1.13;;;;;;;22.89;35.96;94162.59;5011951;28;20033;-80
2021/03/18 01:58:38;;;;;;;1.60;1.30;;;;;;;23.12;36.21;94190.88;5012471;28;20037;-81
2021/03/18 02:01:05;;;;;;;1.95;1.20;;;;;;;22.85;36.34;94155.28;5012232;28;20034;-81
2021/03/18 02:03:31;;;;;;;1.55;1.30;;;;;;;22.93;35.70;94173.19;4994116;28;20581;-81
2021/03/18 02:05:57;;;;;;;1.50;1.33;;;;;;;23.09;36.00;94191.94;5008128;28;20026;-81
2021/03/18 02:08:22;;;;;;;1.70;1.30;;;;;;;23.09;36.06;94197.38;5005279;28;20089;-81
2021/03/18 02:10:48;;;;;;;1.60;1.20;;;;;;;23.08;35.99;94206.06;5011563;28;20022;-81
2021/03/18 02:13:14;;;;;;;1.67;1.27;;;;;;;23.06;35.94;94203.88;5012428;28;20427;-81
2021/03/18 02:15:40;;;;;;;1.70;1.20;;;;;;;22.57;35.90;94141.47;4994315;28;20096;-82
2021/03/18 02:18:29;;;;;;;1.65;1.17;;;;;;;23.05;36.14;94213.28;5007676;28;20109;-81
2021/03/18 02:21:25;;;;;;;1.90;1.10;;;;;;;23.05;35.82;94218.00;5003977;28;20038;-82
2021/03/18 02:24:10;;;;;;;1.52;1.20;;;;;;;23.04;36.18;94211.81;5013066;28;20040;-82
2021/03/18 02:26:57;;;;;;;2.05;1.10;;;;;;;23.04;35.89;94225.44;5012505;28;20695;-81
2021/03/18 02:29:36;;;;;;;1.77;1.20;;;;;;;23.05;36.13;94218.75;5012169;28;20025;-82
2021/03/18 02:32:17;;;;;;;2.17;1.40;;;;;;;23.03;36.18;94221.25;5011842;28;20029;-83
2021/03/18 02:34:47;;;;;;;1.30;1.20;;;;;;;23.00;35.84;94222.31;5011519;28;20042;-82
2021/03/18 02:37:13;;;;;;;2.40;1.48;;;;;;;22.98;36.16;94208.47;5010125;28;20033;-81
2021/03/18 02:40:05;;;;;;;1.50;1.10;;;;;;;22.97;35.92;94212.47;5010290;28;20021;-81
2021/03/18 02:42:33;;;;;;;1.75;1.17;;;;;;;22.71;36.11;94173.63;4994868;28;20515;-81
2021/03/18 02:44:58;;;;;;;1.70;1.25;;;;;;;22.93;36.06;94206.59;4978389;28;20112;-82
2021/03/18 02:47:23;;;;;;;1.88;1.42;;;;;;;22.99;36.28;94223.56;5011366;28;20037;-82
2021/03/18 02:49:49;;;;;;;1.80;1.30;;;;;;;22.97;36.11;94217.91;4994277;28;20023;-81
2021/03/18 02:52:20;;;;;;;1.63;1.20;;;;;;;23.00;36.04;94219.59;5010860;28;20037;-82
2021/03/18 02:54:46;;;;;;;1.67;1.33;;;;;;;22.98;35.97;94219.38;5010547;28;20034;-81
2021/03/18 02:57:12;;;;;;;1.75;1.30;;;;;;;22.97;35.98;94212.47;4996593;28;20037;-81
2021/03/18 02:59:38;;;;;;;1.77;1.40;;;;;;;23.00;36.03;94221.56;5015760;28;20069;-81
2021/03/18 03:02:05;;;;;;;2.00;1.30;;;;;;;22.98;36.02;94219.38;4998327;28;20099;-81
2021/03/18 03:04:32;;;;;;;1.55;1.25;;;;;;;22.99;35.84;94215.41;4982376;28;20057;-83
2021/03/18 03:06:58;;;;;;;1.77;1.45;;;;;;;22.77;36.23;94184.41;4998479;28;20033;-82
2021/03/18 03:09:23;;;;;;;1.80;1.30;;;;;;;22.98;36.07;94224.81;5014168;28;20029;-82
2021/03/18 03:11:49;;;;;;;2.17;1.30;;;;;;;22.94;36.10;94212.78;5006003;28;20035;-80
2021/03/18 03:14:15;;;;;;;1.67;1.33;;;;;;;22.90;36.13;94218.50;4994916;28;20027;-81
2021/03/18 03:16:40;;;;;;;1.95;1.30;;;;;;;22.93;36.16;94209.31;5001818;28;20391;-81
2021/03/18 03:19:07;;;;;;;1.88;1.33;;;;;;;22.94;36.29;94227.13;5015038;28;20040;-80
2021/03/18 03:21:32;;;;;;;1.90;1.40;;;;;;;22.93;35.86;94227.63;5014453;28;20474;-82
2021/03/18 03:23:58;;;;;;;1.75;1.30;;;;;;;22.70;35.83;94182.31;5014297;28;20032;-80
2021/03/18 03:26:24;;;;;;;2.03;1.42;;;;;;;22.93;35.91;94222.94;5013762;28;20483;-81
2021/03/18 03:28:49;;;;;;;1.92;1.33;;;;;;;22.94;35.77;94229.84;5015243;28;20044;-83
2021/03/18 03:31:15;;;;;;;1.50;1.20;;;;;;;22.94;36.10;94240.75;5015421;28;20492;-82
2021/03/18 03:33:41;;;;;;;1.33;1.08;;;;;;;22.94;35.90;94238.03;5015439;28;20044;-82
2021/03/18 03:36:07;;;;;;;1.60;1.45;;;;;;;22.92;35.81;94243.22;4998176;28;20502;-82
2021/03/18 03:38:32;;;;;;;1.58;1.15;;;;;;;22.79;35.96;94217.25;5015016;28;20033;-83
2021/03/18 03:40:58;;;;;;;1.65;1.42;;;;;;;22.92;36.03;94237.78;5014038;28;20029;-80
2021/03/18 03:43:23;;;;;;;2.20;1.45;;;;;;;22.88;35.92;94242.81;5015748;28;20038;-80
2021/03/18 03:45:49;;;;;;;1.38;1.13;;;;;;;22.91;36.03;94247.22;5015441;28;20068;-81
2021/03/18 03:48:14;;;;;;;1.60;1.13;;;;;;;22.90;35.89;94248.47;4997182;28;20026;-81
2021/03/18 03:50:40;;;;;;;1.55;1.40;;;;;;;22.90;35.84;94248.47;5014555;28;20026;-82
2021/03/18 03:53:17;;;;;;;2.10;1.50;;;;;;;22.89;35.90;94249.72;5013525;28;20026;-81
2021/03/18 03:56:09;;;;;;;1.40;1.30;;;;;;;22.88;35.96;94246.78;5014712;28;20560;-82
2021/03/18 03:58:41;;;;;;;1.90;1.25;;;;;;;22.88;36.03;94237.38;5010192;28;20084;-80
2021/03/18 04:01:15;;;;;;;1.60;1.10;;;;;;;22.88;36.05;94246.78;4995535;28;20034;-81
2021/03/18 04:03:41;;;;;;;1.63;1.25;;;;;;;22.87;36.15;94242.59;5006753;28;20117;-81
2021/03/18 04:06:06;;;;;;;1.80;1.48;;;;;;;22.88;36.04;94246.78;4991035;28;20034;-81
2021/03/18 04:08:33;;;;;;;1.45;1.13;;;;;;;22.82;35.70;94243.44;4994409;28;20038;-81
2021/03/18 04:10:58;;;;;;;1.55;1.40;;;;;;;22.80;35.92;94248.69;4993590;28;20027;-81
2021/03/18 04:13:26;;;;;;;1.70;1.30;;;;;;;22.73;36.17;94252.03;5010644;28;20033;-81
2021/03/18 04:15:51;;;;;;;1.83;1.45;;;;;;;22.69;36.26;94246.16;4994293;28;20084;-82
2021/03/18 04:18:18;;;;;;;1.73;1.30;;;;;;;22.62;36.28;94244.06;4995070;28;20026;-82
2021/03/18 04:20:43;;;;;;;2.03;1.40;;;;;;;22.59;36.12;94245.13;4979843;28;20051;-80
2021/03/18 04:23:10;;;;;;;1.90;1.50;;;;;;;22.70;36.23;94250.34;4975571;28;20114;-81
2021/03/18 04:25:35;;;;;;;1.63;1.10;;;;;;;22.61;36.27;94242.59;4973499;28;20535;-81
2021/03/18 04:28:01;;;;;;;1.88;1.50;;;;;;;22.54;36.24;94218.72;4973916;28;20030;-80
2021/03/18 04:30:27;;;;;;;1.58;1.40;;;;;;;22.76;36.24;94245.53;4974130;28;20026;-81
2021/03/18 04:32:52;;;;;;;2.22;1.27;;;;;;;22.77;36.12;94257.91;4974095;28;20027;-81
2021/03/18 04:35:18;;;;;;;1.90;1.45;;;;;;;22.54;35.88;94224.16;4990062;28;20034;-81
2021/03/18 04:37:43;;;;;;;1.88;1.30;;;;;;;22.74;36.26;94258.94;4973586;28;20046;-81
2021/03/18 04:40:11;;;;;;;2.22;1.50;;;;;;;22.65;36.11;94241.03;4974248;28;20023;-81
2021/03/18 04:42:37;;;;;;;1.55;1.13;;;;;;;22.76;36.45;94267.31;4973882;28;20061;-80
2021/03/18 04:45:04;;;;;;;1.60;1.38;;;;;;;22.73;35.78;94257.47;4975033;28;20035;-80
2021/03/18 04:47:30;;;;;;;1.80;1.38;;;;;;;22.49;35.91;94223.00;4972909;28;20100;-81
2021/03/18 04:49:55;;;;;;;1.63;1.20;;;;;;;22.76;35.91;94261.88;4992341;28;20034;-81
2021/03/18 04:52:21;;;;;;;1.60;1.30;;;;;;;22.76;36.26;94272.75;4995650;28;20475;-81
2021/03/18 04:54:46;;;;;;;1.75;1.25;;;;;;;22.75;36.13;94279.44;5012283;28;20026;-82
2021/03/18 04:57:12;;;;;;;1.67;1.40;;;;;;;22.67;35.95;94265.72;4996215;28;20084;-81
2021/03/18 04:59:38;;;;;;;2.85;1.40;;;;;;;22.76;35.95;94267.31;5012999;28;20040;-81
2021/03/18 05:02:03;;;;;;;1.38;1.20;;;;;;;22.73;36.19;94273.78;5007343;28;20454;-81
2021/03/18 05:04:30;;;;;;;1.75;1.30;;;;;;;22.76;36.07;94283.63;5009396;28;20057;-82
2021/03/18 05:06:55;;;;;;;2.42;1.05;;;;;;;22.75;36.13;94287.59;5009655;28;20026;-82
2021/03/18 05:09:23;;;;;;;1.48;1.20;;;;;;;22.77;35.87;94296.00;4997370;28;20027;-81
2021/03/18 05:11:49;;;;;;;1.90;1.40;;;;;;;22.76;36.08;94294.53;4988771;28;20035;-81
2021/03/18 05:14:14;;;;;;;2.42;1.48;;;;;;;22.77;35.85;94293.28;4975500;28;20038;-80
2021/03/18 05:16:40;;;;;;;1.80;1.50;;;;;;;22.51;36.05;94274.16;4996282;28;20053;-82
2021/03/18 05:19:09;;;;;;;1.75;1.40;;;;;;;22.61;35.87;94275.25;4992310;28;20030;-81
2021/03/18 05:21:35;;;;;;;1.75;1.40;;;;;;;22.71;36.04;94282.47;5007375;28;20053;-78
2021/03/18 05:24:00;;;;;;;1.70;1.40;;;;;;;22.83;35.81;94302.09;4990837;28;20037;-79
2021/03/18 05:26:26;;;;;;;1.70;1.20;;;;;;;22.79;35.95;94299.66;4984875;28;20079;-77
2021/03/18 05:28:52;;;;;;;2.00;1.42;;;;;;;22.84;35.95;94306.25;4990300;28;20479;-84
2021/03/18 05:31:17;;;;;;;2.20;1.67;;;;;;;22.49;36.14;94252.22;4988503;28;20026;-76
2021/03/18 05:33:43;;;;;;;2.17;1.48;;;;;;;22.85;35.96;94307.72;5007879;28;20030;-75
2021/03/18 05:36:08;;;;;;;1.25;1.10;;;;;;;22.83;36.13;94304.81;4986845;28;20495;-81
2021/03/18 05:38:34;;;;;;;1.92;1.30;;;;;;;22.84;36.37;94311.69;4984619;28;20022;-80
2021/03/18 05:40:59;;;;;;;2.10;1.77;;;;;;;22.76;36.12;94305.41;5000275;28;20026;-78
2021/03/18 05:43:25;;;;;;;2.10;1.70;;;;;;;22.53;36.17;94271.69;4997982;28;20081;-80
2021/03/18 05:45:51;;;;;;;1.83;1.45;;;;;;;22.88;36.58;94323.03;4995484;28;20062;-79
2021/03/18 05:48:18;;;;;;;2.10;1.38;;;;;;;22.69;36.64;94285.00;4987527;28;20026;-82
2021/03/18 05:50:43;;;;;;;1.70;1.42;;;;;;;22.93;36.14;94323.69;5002338;28;20053;-83
2021/03/18 05:53:09;;;;;;;1.98;1.38;;;;;;;22.97;36.32;94321.38;4978732;28;20052;-82
2021/03/18 05:55:34;;;;;;;1.70;1.23;;;;;;;22.98;36.04;94322.13;4991696;28;20695;-81
2021/03/18 05:58:00;;;;;;;2.05;1.45;;;;;;;23.08;35.93;94334.78;4980767;28;20026;-82
2021/03/18 06:00:26;;;;;;;1.70;1.20;;;;;;;23.09;36.10;94322.66;4995784;28;20029;-81
2021/03/18 06:02:52;;;;;;;1.63;1.20;;;;;;;23.21;35.63;94334.78;4983892;28;20054;-83
2021/03/18 06:05:18;;;;;;;1.95;1.38;;;;;;;23.34;35.74;94334.78;4999670;28;20483;-87
2021/03/18 06:07:44;;;;;;;1.83;1.30;;;;;;;23.06;35.25;94291.03;4993122;28;20030;-80
2021/03/18 06:10:11;;;;;;;1.70;1.23;;;;;;;23.55;34.86;94346.50;5009774;28;20102;-80
2021/03/18 06:12:37;;;;;;;1.70;1.17;;;;;;;23.61;35.24;94336.22;4979450;28;20411;-79
2021/03/18 06:15:07;;;;;;;2.45;1.40;;;;;;;23.75;35.18;94343.13;4993844;28;20061;-80
2021/03/18 06:17:33;;;;;;;1.75;1.35;;;;;;;23.86;34.62;94348.38;4987830;28;20659;-76
2021/03/18 06:19:59;;;;;;;1.52;1.05;;;;;;;23.93;34.22;94343.72;4989931;28;20041;-79
2021/03/18 06:22:36;;;;;;;1.80;1.45;;;;;;;23.69;34.33;94290.72;5003796;28;20035;-77
2021/03/18 06:25:03;;;;;;;2.25;1.38;;;;;;;24.13;34.07;94353.94;5006742;28;20534;-77
2021/03/18 06:27:28;;;;;;;1.90;1.45;;;;;;;24.22;33.92;94350.78;4983659;28;20058;-78
2021/03/18 06:29:55;;;;;;;1.98;1.50;;;;;;;24.29;33.50;94352.84;4976821;28;20038;-78
2021/03/18 06:32:20;;;;;;;1.83;1.48;;;;;;;24.31;33.98;94342.13;5004810;28;20038;-76
2021/03/18 06:34:47;;;;;;;1.90;1.35;;;;;;;24.49;33.39;94365.81;4990106;28;20553;-75
2021/03/18 06:37:31;;;;;;;1.98;1.35;;;;;;;24.59;33.55;94358.63;4983720;28;20169;-75
2021/03/18 06:40:20;;;;;;;2.00;1.30;;;;;;;24.70;33.62;94364.53;4978204;28;20061;-75
2021/03/18 06:42:56;;;;;;;1.75;1.48;;;;;;;24.80;33.10;94362.06;4986308;28;20073;-74
2021/03/18 06:45:21;;;;;;;1.77;1.40;;;;;;;24.77;33.18;94352.19;5156496;22;20140;-71
2021/03/18 06:50:25;;;;;;;1.65;1.35;;;;;;;25.00;32.92;94349.16;4981603;28;20061;-80
2021/03/18 06:52:51;;;;;;;2.88;2.25;;;;;;;24.96;31.06;94353.44;4994379;28;20454;-80
2021/03/18 06:55:32;;;;;;;1.80;1.40;;;;;;;24.93;32.21;94352.53;4994521;28;20029;-82
2021/03/18 06:58:17;;;;;;;1.63;1.42;;;;;;;25.09;32.21;94356.84;4995087;28;20499;-83
2021/03/18 07:00:43;;;;;;;3.33;1.50;;;;;;;25.10;31.67;94363.78;4994299;28;20846;-79
2021/03/18 07:03:09;;;;;;;1.95;1.48;;;;;;;25.17;32.20;94371.31;4993360;28;20029;-78
2021/03/18 07:05:42;;;;;;;2.13;1.58;;;;;;;25.24;32.23;94367.16;4994277;28;20022;-80
2021/03/18 07:08:20;;;;;;;2.58;1.80;;;;;;;25.28;30.81;94371.03;4994399;28;20022;-81
2021/03/18 07:10:46;;;;;;;3.10;1.27;;;;;;;25.26;31.48;94365.38;5129702;23;20053;-88
2021/03/18 07:13:18;;;;;;;2.10;1.40;;;;;;;25.40;32.41;94370.19;5002324;28;20036;-79
2021/03/18 07:15:45;;;;;;;2.63;1.52;;;;;;;25.31;30.67;94367.22;5008070;28;20052;-76
2021/03/18 07:18:11;;;;;;;4.78;1.58;;;;;;;25.42;32.14;94367.63;5035173;28;20132;-77
2021/03/18 07:20:37;;;;;;;2.10;1.63;;;;;;;25.29;31.89;94342.44;5037322;28;20469;-78
2021/03/18 07:23:08;;;;;;;2.47;1.40;;;;;;;25.59;32.25;94369.91;5042396;28;20021;-74
2021/03/18 07:25:34;;;;;;;1.88;1.20;;;;;;;25.67;32.02;94373.47;5023425;28;20094;-74
2021/03/18 07:28:01;;;;;;;1.70;1.20;;;;;;;25.61;31.90;94362.66;5033488;28;20038;-75
2021/03/18 07:30:35;;;;;;;2.28;1.20;;;;;;;25.65;31.80;94356.84;5005782;28;20120;-76
2021/03/18 07:33:01;;;;;;;1.67;1.40;;;;;;;25.54;32.22;94346.94;5039752;28;20112;-76
2021/03/18 07:35:27;;;;;;;2.08;1.20;;;;;;;25.76;32.09;94367.50;5047230;28;20028;-76
2021/03/18 07:37:53;;;;;;;2.63;1.40;;;;;;;25.72;31.57;94372.56;5049076;28;20025;-76
2021/03/18 07:40:19;;;;;;;1.92;1.30;;;;;;;25.73;31.67;94382.25;5045797;28;20844;-76
2021/03/18 07:42:45;;;;;;;2.28;1.50;;;;;;;25.67;31.63;94370.75;5047971;28;20055;-76
2021/03/18 07:45:10;;;;;;;1.67;1.40;;;;;;;25.72;31.68;94378.03;5010936;28;20463;-75
2021/03/18 07:47:36;;;;;;;1.98;1.48;;;;;;;25.69;31.97;94384.59;5049015;28;20025;-76
2021/03/18 07:50:05;;;;;;;2.25;1.40;;;;;;;25.56;31.63;94381.94;5045139;28;20020;-68
2021/03/18 07:52:30;;;;;;;1.92;1.27;;;;;;;25.33;31.84;94340.81;5027204;28;20056;-69
2021/03/18 07:54:56;;;;;;;2.67;1.63;;;;;;;25.45;31.75;94382.97;5005999;28;20024;-70
2021/03/18 07:57:22;;;;;;;1.95;1.30;;;;;;;25.49;31.77;94371.69;5027126;28;20026;-69
2021/03/18 07:59:47;;;;;;;3.47;1.40;;;;;;;25.49;31.80;94388.09;5028297;28;20022;-70
2021/03/18 08:02:30;;;;;;;3.50;1.40;;;;;;;25.37;31.95;94381.47;5030194;28;20026;-69
2021/03/18 08:04:56;;;;;;;2.35;1.38;;;;;;;25.39;31.91;94378.94;5027153;28;20022;-70
2021/03/18 08:07:38;;;;;;;3.00;1.60;;;;;;;25.25;32.00;94363.91;5012601;28;20025;-69
2021/03/18 08:10:07;;;;;;;2.78;1.30;;;;;;;25.24;31.87;94381.56;5039914;28;20049;-69
2021/03/18 08:12:43;;;;;;;2.50;1.25;;;;;;;24.93;32.04;94344.34;5043802;28;20017;-69
2021/03/18 08:15:38;;;;;;;2.03;1.33;;;;;;;25.11;32.05;94389.88;5001720;28;20025;-69
2021/03/18 08:18:15;;;;;;;1.95;1.48;;;;;;;25.06;32.36;94381.78;5017152;28;20064;-69
2021/03/18 08:20:41;;;;;;;1.80;1.25;;;;;;;25.00;32.36;94403.78;5026584;28;20132;-69
2021/03/18 08:23:27;;;;;;;2.42;1.42;;;;;;;24.93;32.51;94398.97;5029515;28;20120;-69
2021/03/18 08:26:03;;;;;;;1.70;1.20;;;;;;;24.92;32.43;94397.50;5024311;28;20149;-69
2021/03/18 08:28:47;;;;;;;2.35;1.50;;;;;;;24.88;32.73;94397.09;5029628;28;20789;-69
2021/03/18 08:31:20;;;;;;;2.20;1.38;;;;;;;24.86;32.36;94398.91;5035732;28;20580;-69
2021/03/18 08:33:47;;;;;;;1.92;1.50;;;;;;;24.80;32.89;94400.28;4999124;28;20540;-70
2021/03/18 08:36:26;;;;;;;1.80;1.58;;;;;;;24.76;32.77;94399.91;5030120;28;20041;-70
2021/03/18 08:38:53;;;;;;;2.05;1.20;;;;;;;24.71;33.11;94398.03;5017759;28;20196;-70
2021/03/18 08:41:27;;;;;;;1.67;1.20;;;;;;;24.67;32.98;94400.38;5020077;28;20030;-69
2021/03/18 08:44:24;;;;;;;2.15;1.40;;;;;;;24.60;32.78;94409.97;5013931;28;20557;-69
2021/03/18 08:47:00;;;;;;;2.58;1.38;;;;;;;24.57;32.85;94394.66;5030029;28;20029;-69
2021/03/18 08:49:37;;;;;;;1.85;1.30;;;;;;;24.54;33.08;94405.88;5008641;28;20116;-69
2021/03/18 08:52:04;;;;;;;1.83;1.40;;;;;;;23.62;32.75;94273.00;5016314;28;20037;-70
2021/03/18 08:54:39;;;;;;;2.65;1.48;;;;;;;24.43;33.23;94406.88;5029478;28;20027;-69
2021/03/18 08:57:08;;;;;;;1.90;1.30;;;;;;;24.43;33.20;94401.41;5028532;28;20029;-69
2021/03/18 08:59:34;;;;;;;1.90;1.37;;;;;;;24.39;33.33;94394.81;5029801;28;20498;-69
2021/03/18 09:02:10;;;;;;;1.90;1.40;;;;;;;24.24;33.15;94372.06;5029992;28;20040;-69
2021/03/18 09:04:35;;;;;;;1.95;1.27;;;;;;;24.36;33.30;94401.31;5029515;28;20127;-69
2021/03/18 09:07:04;;;;;;;1.90;1.30;;;;;;;24.32;33.32;94400.91;5029642;28;20133;-69
2021/03/18 09:09:30;;;;;;;1.85;1.33;;;;;;;24.28;33.15;94397.75;5029382;28;20041;-71
2021/03/18 09:11:55;;;;;;;1.90;1.27;;;;;;;24.28;33.26;94400.50;4992531;28;20179;-70
2021/03/18 09:14:21;;;;;;;1.73;1.35;;;;;;;24.20;33.36;94399.69;5008584;28;20490;-71
2021/03/18 09:16:47;;;;;;;2.85;1.35;;;;;;;23.89;32.85;94356.94;5009918;28;20040;-71
2021/03/18 09:19:13;;;;;;;2.47;1.33;;;;;;;24.21;33.25;94405.88;5000981;28;20469;-70
2021/03/18 09:21:40;;;;;;;2.20;1.35;;;;;;;24.17;33.47;94406.19;5027888;28;20030;-70
2021/03/18 09:24:06;;;;;;;1.88;1.27;;;;;;;23.95;33.35;94384.84;5017656;28;20064;-70
2021/03/18 09:26:31;;;;;;;1.60;1.30;;;;;;;23.86;33.23;94382.53;5029117;28;20489;-71
2021/03/18 09:28:58;;;;;;;2.08;1.30;;;;;;;24.07;33.69;94407.91;5011851;28;20033;-69
2021/03/18 09:31:24;;;;;;;1.45;1.15;;;;;;;23.97;33.62;94401.41;5031711;28;20017;-70
2021/03/18 09:33:52;;;;;;;1.92;1.27;;;;;;;24.05;33.77;94410.44;5029467;28;20024;-70
2021/03/18 09:36:18;;;;;;;1.77;1.30;;;;;;;24.04;33.35;94425.31;5011570;28;20142;-69
2021/03/18 09:39:02;;;;;;;1.75;1.27;;;;;;;24.02;33.86;94422.38;5029051;28;20037;-70
2021/03/18 09:41:30;;;;;;;1.52;1.20;;;;;;;23.94;33.40;94421.53;5012784;28;20120;-70
2021/03/18 09:44:14;;;;;;;1.77;1.20;;;;;;;23.98;33.84;94443.78;5027755;28;20036;-70
2021/03/18 09:46:41;;;;;;;1.80;1.30;;;;;;;23.92;33.52;94434.25;5029271;28;20026;-69
2021/03/18 09:49:07;;;;;;;2.45;1.48;;;;;;;23.71;33.28;94405.44;5027525;28;20029;-70
2021/03/18 09:51:40;;;;;;;2.78;1.20;;;;;;;23.93;33.48;94447.38;5029117;28;20029;-69
2021/03/18 09:54:08;;;;;;;1.77;1.30;;;;;;;23.92;33.51;94440.44;5030871;28;20013;-70
2021/03/18 09:56:41;;;;;;;2.20;1.20;;;;;;;23.89;33.73;94451.66;5014786;28;20425;-69
2021/03/18 09:59:09;;;;;;;1.85;1.25;;;;;;;23.75;34.02;94435.84;5011176;28;20036;-70
2021/03/18 10:01:34;;;;;;;1.50;1.10;;;;;;;23.86;33.94;94458.91;5010861;28;20029;-69
2021/03/18 10:04:07;;;;;;;1.40;1.15;;;;;;;23.79;33.72;94453.34;5028956;28;20890;-69
2021/03/18 10:06:44;;;;;;;2.03;1.20;;;;;;;23.86;33.73;94462.91;5027580;28;20025;-73
2021/03/18 10:09:26;;;;;;;2.03;1.27;;;;;;;23.78;34.04;94445.69;4998036;28;20140;-71
2021/03/18 10:12:07;;;;;;;1.98;1.40;;;;;;;23.83;34.07;94458.50;5016722;28;20521;-71
2021/03/18 10:14:46;;;;;;;1.85;1.35;;;;;;;23.81;33.99;94461.00;5005256;28;20025;-70
2021/03/18 10:17:19;;;;;;;1.58;1.20;;;;;;;23.36;33.97;94405.81;5033154;28;20101;-71
2021/03/18 10:20:01;;;;;;;1.50;1.08;;;;;;;23.77;33.94;94469.50;5037458;28;20056;-70
2021/03/18 10:22:32;;;;;;;1.88;1.30;;;;;;;23.79;34.16;94475.16;5032439;28;20029;-70
2021/03/18 10:25:04;;;;;;;1.73;1.17;;;;;;;23.84;34.03;94470.84;5042541;28;20060;-70
2021/03/18 10:27:48;;;;;;;1.30;1.00;;;;;;;23.87;34.62;94474.00;5016773;28;20024;-70
2021/03/18 10:30:23;;;;;;;2.47;1.27;;;;;;;23.96;33.98;94473.59;5039604;28;20056;-84
2021/03/18 10:33:12;;;;;;;3.97;1.60;;;;;;;23.96;30.82;94478.28;5036917;28;20048;-76
2021/03/18 10:35:40;;;;;;;2.67;1.55;;;;;;;23.66;33.32;94422.63;5030155;28;20056;-80
2021/03/18 10:38:06;;;;;;;4.72;1.45;;;;;;;24.10;33.77;94472.31;5009988;28;20056;-81
2021/03/18 10:40:38;;;;;;;2.53;1.40;;;;;;;23.98;33.78;94443.78;5031921;28;20025;-80
2021/03/18 10:43:17;;;;;;;2.78;1.20;;;;;;;23.97;33.50;94428.66;5015699;28;20032;-79
2021/03/18 10:45:43;;;;;;;5.50;1.48;;;;;;;24.11;33.51;94435.59;5015192;28;20162;-93
2021/03/18 10:48:09;;;;;;;5.47;1.27;;;;;;;24.49;33.59;94475.00;5031464;28;20056;-80
2021/03/18 10:50:36;;;;;;;5.13;1.20;;;;;;;24.35;33.00;94438.09;5025950;28;20075;-79
2021/03/18 10:53:05;;;;;;;3.53;1.50;;;;;;;24.67;32.89;94485.03;5013272;28;20116;-79
2021/03/18 10:55:35;;;;;;;2.83;1.50;;;;;;;24.76;32.90;94471.63;5028451;28;20809;-79
2021/03/18 10:58:03;;;;;;;3.03;1.23;;;;;;;24.87;33.28;94477.59;5021441;28;20059;-79
2021/03/18 11:00:30;;;;;;;2.85;1.30;;;;;;;24.95;32.93;94472.94;5027831;28;20022;-81
2021/03/18 11:03:00;;;;;;;2.40;1.27;;;;;;;25.03;32.38;94473.75;5012459;28;20025;-79
2021/03/18 11:05:30;;;;;;;2.20;1.20;;;;;;;25.08;32.15;94461.97;5029230;28;20041;-79
2021/03/18 11:07:56;;;;;;;;;;;;;;;25.20;32.23;94465.91;5029508;28;20414;-80
2021/03/18 11:10:21;;;;;;;3.50;1.20;;;;;;;25.24;31.70;94444.41;5030269;28;20017;-80
2021/03/18 11:13:03;;;;;;;3.25;1.20;;;;;;;25.30;32.10;94458.69;5008506;28;20034;-79
2021/03/18 11:15:42;;;;;;;2.78;1.50;;;;;;;25.40;31.90;94456.94;5010617;28;20041;-78
2021/03/18 11:18:08;;;;;;;2.25;1.40;;;;;;;25.32;32.02;94437.03;5029217;28;20079;-79
2021/03/18 11:20:38;;;;;;;2.60;1.20;;;;;;;25.54;32.07;94466.50;5017520;28;20033;-80
2021/03/18 11:23:03;;;;;;;2.30;1.40;;;;;;;25.57;31.80;94460.69;4993452;28;20526;-79
2021/03/18 11:25:29;;;;;;;1.98;1.23;;;;;;;25.62;31.73;94467.28;5034522;28;20057;-78
2021/03/18 11:27:55;;;;;;;2.17;1.50;;;;;;;25.57;31.84;94454.50;5016929;28;20181;-72
2021/03/18 11:30:31;;;;;;;2.13;1.35;;;;;;;25.74;31.59;94468.50;5035479;28;20028;-79
2021/03/18 11:33:10;;;;;;;4.25;1.30;;;;;;;25.79;31.00;94452.66;5021365;28;20497;-76
2021/03/18 11:35:36;;;;;;;1.67;1.30;;;;;;;25.86;31.44;94454.72;5048082;28;20021;-79
2021/03/18 11:38:01;;;;;;;2.38;1.30;;;;;;;25.92;31.15;94447.09;5042200;28;20048;-76
2021/03/18 11:40:26;;;;;;;12.65;2.58;;;;;;;26.02;31.19;94456.28;5037077;28;20039;-79
2021/03/18 11:42:52;;;;;;;6.25;1.55;;;;;;;26.00;31.89;94456.06;5042951;28;20028;-79
2021/03/18 11:45:17;;;;;;;9.15;1.58;;;;;;;26.08;31.82;94467.78;5034381;28;20060;-76